Rechercher aéroport 
image banner adimage banner adimage banner ad
image banner ad

24CL - Salyer Farms

Situé à Corcoran, United States

ICAO - 24CL, IATA -

Données fournies par Airmate  

Information générale

Coordonnées: N36°5'19" W119°32'30"
Élévation : 205 feet MSL.
Variation magnétique : 12° East
Voir autres Aéroports à California

Données opérationnelles

Special qualification required
Heure actuelle UTC:
Heure actuelle locale:
Météo à : KHJO - Hanford Muni ( 26 km )
METAR: KHJO 270553Z AUTO 13005KT 10SM CLR 26/19 A2991 RMK AO2 SLP128 T02610194 10339 20261 53011
Voir NOTAMs / SUP AIP / TFR affectant cet aéroport [VIEW]
Fréquences de communication: [VIEW]

Pistes:

Identifiant RWYQFULongueur (ft)Largeur (ft)SurfaceLDA (ft)
14681575ASPH
32681575ASPH

Coordonnées de l'aéroport

Adresse: Corcoran United States

Vue satellite de 24CL